createdAt,value
2023-05-22T00:01:46.747Z,11.03
2023-05-22T00:04:13.685Z,10.00
2023-05-22T00:06:43.815Z,10.77
2023-05-22T00:09:11.077Z,9.70
2023-05-22T00:11:39.409Z,10.13
2023-05-22T00:14:06.361Z,10.47
2023-05-22T00:16:33.187Z,10.53
2023-05-22T00:19:01.898Z,9.90
2023-05-22T00:21:29.573Z,10.10
2023-05-22T00:23:56.347Z,11.13
2023-05-22T00:26:24.036Z,10.70
2023-05-22T00:28:50.861Z,10.23
2023-05-22T00:31:17.768Z,9.90
2023-05-22T00:33:44.536Z,10.27
2023-05-22T00:36:11.361Z,10.47
2023-05-22T00:38:38.198Z,10.70
2023-05-22T00:41:06.848Z,10.53
2023-05-22T00:43:34.638Z,10.30
2023-05-22T00:46:01.509Z,10.77
2023-05-22T00:48:28.387Z,11.20
2023-05-22T00:50:57.177Z,11.37
2023-05-22T00:53:25.506Z,10.00
2023-05-22T00:55:54.447Z,10.23
2023-05-22T00:58:21.928Z,10.67
2023-05-22T01:00:48.928Z,11.17
2023-05-22T01:03:16.346Z,11.47
2023-05-22T01:05:43.587Z,11.67
2023-05-22T01:08:11.256Z,11.70
2023-05-22T01:10:40.062Z,10.47
2023-05-22T01:13:12.944Z,11.13
2023-05-22T01:15:59.534Z,10.97
2023-05-22T01:18:29.332Z,9.93
2023-05-22T01:21:25.349Z,10.93
2023-05-22T01:24:07.089Z,11.20
2023-05-22T01:26:56.521Z,12.00
2023-05-22T01:29:26.082Z,10.83
2023-05-22T01:31:55.812Z,9.50
2023-05-22T01:34:23.021Z,10.10
2023-05-22T01:36:51.274Z,9.27
2023-05-22T01:39:19.031Z,10.30
2023-05-22T01:41:46.293Z,10.70
2023-05-22T01:44:13.068Z,11.10
2023-05-22T01:46:39.834Z,10.40
2023-05-22T01:49:09.010Z,10.70
2023-05-22T01:51:52.728Z,11.40
2023-05-22T01:54:42.243Z,9.90
2023-05-22T01:57:18.898Z,11.30
2023-05-22T02:00:15.841Z,10.30
2023-05-22T02:02:44.947Z,11.10
2023-05-22T02:05:13.895Z,10.97
2023-05-22T02:07:42.574Z,11.33
2023-05-22T02:10:11.240Z,10.37
2023-05-22T02:12:38.905Z,11.47
2023-05-22T02:15:08.173Z,11.83
2023-05-22T02:17:42.551Z,10.87
2023-05-22T02:20:15.311Z,10.70
2023-05-22T02:22:47.006Z,11.77
2023-05-22T02:25:15.272Z,11.67
2023-05-22T02:27:46.517Z,10.57
2023-05-22T02:30:14.911Z,10.07
2023-05-22T02:32:42.293Z,11.70
2023-05-22T02:35:09.527Z,11.07
2023-05-22T02:37:36.643Z,11.67
2023-05-22T02:40:07.332Z,10.30
2023-05-22T02:42:34.627Z,10.60
2023-05-22T02:45:01.611Z,11.70
2023-05-22T02:47:28.420Z,10.50
2023-05-22T02:49:57.834Z,10.90
2023-05-22T02:52:25.184Z,11.83
2023-05-22T02:54:52.019Z,10.83
2023-05-22T02:57:18.904Z,12.10
2023-05-22T02:59:45.677Z,11.43
2023-05-22T03:02:12.538Z,11.43
2023-05-22T03:04:39.355Z,10.93
2023-05-22T03:07:07.261Z,12.10
2023-05-22T03:09:34.165Z,10.90
2023-05-22T03:12:01.022Z,10.80
2023-05-22T03:14:29.208Z,10.77
2023-05-22T03:16:56.326Z,10.23
2023-05-22T03:19:23.179Z,11.20
2023-05-22T03:21:50.200Z,10.57
2023-05-22T03:24:17.092Z,11.40
2023-05-22T03:26:44.124Z,10.03
2023-05-22T03:29:11.076Z,9.93
2023-05-22T03:31:37.972Z,11.37
2023-05-22T03:34:05.999Z,10.10
2023-05-22T03:36:35.781Z,10.33
2023-05-22T03:39:03.687Z,10.20
2023-05-22T03:41:30.892Z,10.70
2023-05-22T03:43:58.435Z,11.53
2023-05-22T03:46:25.564Z,10.30
2023-05-22T03:48:52.525Z,10.03
2023-05-22T03:51:20.331Z,11.23
2023-05-22T03:53:47.572Z,10.53
2023-05-22T03:56:14.372Z,10.47
2023-05-22T03:58:41.233Z,11.13
2023-05-22T04:01:10.107Z,10.83
2023-05-22T04:03:39.815Z,11.87
2023-05-22T04:06:07.570Z,11.53
2023-05-22T04:08:34.716Z,10.53
2023-05-22T04:11:01.585Z,10.90
2023-05-22T04:13:28.978Z,10.10
2023-05-22T04:15:56.851Z,10.60
2023-05-22T04:18:23.758Z,10.50
2023-05-22T04:20:51.870Z,12.33
2023-05-22T04:23:18.687Z,10.77
2023-05-22T04:25:48.091Z,11.70
2023-05-22T04:28:17.506Z,12.50
2023-05-22T04:30:44.767Z,13.00
2023-05-22T04:33:12.706Z,13.37
2023-05-22T04:35:40.778Z,13.47
2023-05-22T04:38:07.694Z,12.30
2023-05-22T04:40:37.805Z,12.47
2023-05-22T04:43:05.100Z,12.67
2023-05-22T04:45:32.927Z,13.50
2023-05-22T04:48:02.529Z,14.10
2023-05-22T04:50:32.616Z,13.63
2023-05-22T04:52:59.946Z,13.93
2023-05-22T04:55:26.693Z,14.10
2023-05-22T04:57:53.680Z,13.83
2023-05-22T05:00:26.348Z,13.80
2023-05-22T05:02:53.519Z,13.23
2023-05-22T05:05:20.540Z,13.20
2023-05-22T05:07:50.047Z,13.13
2023-05-22T05:10:17.415Z,13.60
2023-05-22T05:12:44.600Z,12.70
2023-05-22T05:15:11.863Z,14.33
2023-05-22T05:17:38.687Z,13.50
2023-05-22T05:20:07.376Z,14.07
2023-05-22T05:22:34.455Z,13.50
2023-05-22T05:25:01.772Z,13.50
2023-05-22T05:27:28.563Z,14.67
2023-05-22T05:29:55.361Z,14.17
2023-05-22T05:32:22.391Z,13.23
2023-05-22T05:34:49.412Z,11.57
2023-05-22T05:37:16.225Z,12.73
2023-05-22T05:39:43.010Z,13.60
2023-05-22T05:42:09.789Z,13.33
2023-05-22T05:44:36.592Z,14.30
2023-05-22T05:47:03.445Z,13.33
2023-05-22T05:49:30.462Z,14.00
2023-05-22T05:51:57.412Z,13.60
2023-05-22T05:54:26.298Z,14.33
2023-05-22T05:56:53.410Z,13.83
2023-05-22T05:59:20.521Z,12.90
2023-05-22T06:01:48.239Z,12.80
2023-05-22T06:04:15.183Z,12.43
2023-05-22T06:06:42.831Z,12.90
2023-05-22T06:09:10.363Z,12.63
2023-05-22T06:11:37.434Z,12.43
2023-05-22T06:14:07.034Z,13.40
2023-05-22T06:16:33.898Z,12.70
2023-05-22T06:19:01.180Z,12.80
2023-05-22T06:21:28.002Z,11.47
2023-05-22T06:23:54.786Z,11.03
2023-05-22T06:26:22.357Z,10.97
2023-05-22T06:28:49.151Z,12.07
2023-05-22T06:31:15.930Z,11.23
2023-05-22T06:33:43.408Z,11.30
2023-05-22T06:36:11.534Z,10.57
2023-05-22T06:38:39.312Z,11.20
2023-05-22T06:41:06.513Z,10.00
2023-05-22T06:43:33.628Z,10.60
2023-05-22T06:46:00.549Z,10.07
2023-05-22T06:48:27.425Z,10.87
2023-05-22T06:50:54.186Z,11.60
2023-05-22T06:53:21.014Z,9.80
2023-05-22T06:55:47.906Z,10.77
2023-05-22T06:58:15.038Z,11.60
2023-05-22T07:00:42.045Z,9.80
2023-05-22T07:03:09.136Z,7.80
2023-05-22T07:05:35.989Z,9.67
2023-05-22T07:08:02.897Z,8.93
2023-05-22T07:10:29.847Z,10.23
2023-05-22T07:12:56.710Z,8.83
2023-05-22T07:15:23.476Z,10.57
2023-05-22T07:17:50.249Z,9.80
2023-05-22T07:20:17.797Z,9.70
2023-05-22T07:22:44.652Z,9.03
2023-05-22T07:25:11.486Z,9.60
2023-05-22T07:27:38.399Z,10.17
2023-05-22T07:30:05.923Z,10.23
2023-05-22T07:32:32.788Z,9.60
2023-05-22T07:34:59.639Z,8.90
2023-05-22T07:37:26.662Z,9.13
2023-05-22T07:39:53.637Z,8.90
2023-05-22T07:42:21.722Z,9.23
2023-05-22T07:44:48.565Z,9.80
2023-05-22T07:47:15.460Z,8.97
2023-05-22T07:49:42.298Z,9.47
2023-05-22T07:52:09.203Z,9.50
2023-05-22T07:54:35.991Z,9.40
2023-05-22T07:57:03.722Z,9.80
2023-05-22T07:59:30.604Z,9.20
2023-05-22T08:01:58.324Z,9.73
2023-05-22T08:04:26.133Z,9.20
2023-05-22T08:06:53.360Z,8.37
2023-05-22T08:09:21.502Z,9.30
2023-05-22T08:11:48.528Z,8.70
2023-05-22T08:14:18.124Z,9.00
2023-05-22T08:16:44.932Z,8.30
2023-05-22T08:19:11.876Z,8.90
2023-05-22T08:21:39.813Z,8.60
2023-05-22T08:24:08.194Z,8.20
2023-05-22T08:26:35.022Z,8.93
2023-05-22T08:29:01.950Z,8.50
2023-05-22T08:31:29.429Z,7.83
2023-05-22T08:34:02.323Z,8.23
2023-05-22T08:36:31.585Z,8.67
2023-05-22T08:38:58.447Z,7.60
2023-05-22T08:41:25.448Z,8.60
2023-05-22T08:43:52.575Z,8.70
2023-05-22T08:46:20.144Z,8.37
2023-05-22T08:48:50.251Z,8.10
2023-05-22T08:51:19.562Z,7.73
2023-05-22T08:53:48.471Z,8.60
2023-05-22T08:56:15.395Z,7.63
2023-05-22T08:58:42.491Z,8.07
2023-05-22T09:01:09.557Z,9.30
2023-05-22T09:03:36.864Z,8.60
2023-05-22T09:06:04.610Z,8.40
2023-05-22T09:08:31.382Z,7.90
2023-05-22T09:10:58.221Z,7.87
2023-05-22T09:13:27.314Z,7.57
2023-05-22T09:15:59.528Z,7.87
2023-05-22T09:18:32.511Z,7.67
2023-05-22T09:21:00.214Z,7.70
2023-05-22T09:23:28.278Z,8.80
2023-05-22T09:26:00.078Z,7.93
2023-05-22T09:28:27.610Z,8.10
2023-05-22T09:30:55.548Z,8.20
2023-05-22T09:33:23.229Z,7.50
2023-05-22T09:35:53.150Z,8.13
2023-05-22T09:38:23.395Z,7.60
2023-05-22T09:40:56.823Z,7.90
2023-05-22T09:43:27.923Z,7.80
2023-05-22T09:46:01.012Z,9.70
2023-05-22T09:48:27.926Z,8.87
2023-05-22T09:50:55.865Z,7.97
2023-05-22T09:53:28.186Z,8.67
2023-05-22T09:55:59.904Z,9.33
2023-05-22T09:58:31.432Z,8.73
2023-05-22T10:01:02.130Z,8.40
2023-05-22T10:03:31.507Z,7.40
2023-05-22T10:06:00.601Z,9.13
2023-05-22T10:08:29.259Z,8.77
2023-05-22T10:10:57.891Z,7.50
2023-05-22T10:13:26.411Z,7.30
2023-05-22T10:15:54.424Z,7.40
2023-05-22T10:18:22.046Z,8.73
2023-05-22T10:20:50.005Z,6.63
2023-05-22T10:23:17.752Z,6.90
2023-05-22T10:25:45.756Z,7.60
2023-05-22T10:28:18.047Z,7.20
2023-05-22T10:30:52.800Z,6.83
2023-05-22T10:33:25.128Z,7.20
2023-05-22T10:36:03.956Z,8.20
2023-05-22T10:38:45.243Z,6.50
2023-05-22T10:41:12.787Z,7.83
2023-05-22T10:43:43.128Z,6.83
2023-05-22T10:46:12.616Z,6.60
2023-05-22T10:48:41.462Z,6.50
2023-05-22T10:51:08.930Z,7.20
2023-05-22T10:53:36.449Z,6.20
2023-05-22T10:56:14.459Z,5.50
2023-05-22T10:58:45.208Z,7.20
2023-05-22T11:01:13.324Z,6.53
2023-05-22T11:03:55.839Z,6.70
2023-05-22T11:06:43.822Z,6.10
2023-05-22T11:09:20.536Z,6.37
2023-05-22T11:11:48.294Z,6.63
2023-05-22T11:14:21.014Z,6.50
2023-05-22T11:16:47.896Z,6.40
2023-05-22T11:19:23.456Z,5.37
2023-05-22T11:21:51.131Z,5.80
2023-05-22T11:24:18.470Z,6.63
2023-05-22T11:27:10.056Z,6.07
2023-05-22T11:29:38.432Z,6.00
2023-05-22T11:32:08.056Z,6.50
2023-05-22T11:34:35.021Z,6.00
2023-05-22T11:37:02.006Z,5.83
2023-05-22T11:39:28.804Z,6.00
2023-05-22T11:41:55.747Z,6.30
2023-05-22T11:44:24.899Z,5.23
2023-05-22T11:46:52.518Z,5.27
2023-05-22T11:49:23.867Z,5.40
2023-05-22T11:51:51.838Z,6.07
2023-05-22T11:54:18.997Z,4.80
2023-05-22T11:56:46.034Z,5.90
2023-05-22T11:59:12.889Z,5.57
2023-05-22T12:01:39.718Z,5.13
2023-05-22T12:04:06.688Z,4.77
2023-05-22T12:06:33.758Z,4.70
2023-05-22T12:09:03.716Z,5.37
2023-05-22T12:11:35.087Z,4.90
2023-05-22T12:14:06.817Z,5.23
2023-05-22T12:16:37.192Z,5.27
2023-05-22T12:19:08.010Z,4.73
2023-05-22T12:21:36.574Z,5.23
2023-05-22T12:24:04.967Z,5.03
2023-05-22T12:26:32.367Z,6.70
2023-05-22T12:28:59.704Z,6.63
2023-05-22T12:31:27.196Z,6.40
2023-05-22T12:33:57.453Z,6.13
2023-05-22T12:36:39.378Z,5.30
2023-05-22T12:39:10.963Z,5.70
2023-05-22T12:41:38.266Z,6.03
2023-05-22T12:44:05.181Z,5.00
2023-05-22T12:46:32.776Z,6.20
2023-05-22T12:49:00.823Z,5.73
2023-05-22T12:51:32.534Z,5.67
2023-05-22T12:54:01.454Z,6.10
2023-05-22T12:56:29.434Z,4.90
2023-05-22T12:58:57.506Z,5.10
2023-05-22T13:01:24.915Z,5.13
2023-05-22T13:03:52.710Z,5.63
2023-05-22T13:06:20.586Z,5.40
2023-05-22T13:08:47.464Z,4.50
2023-05-22T13:11:14.716Z,5.43
2023-05-22T13:13:49.940Z,4.97
2023-05-22T13:16:16.779Z,5.47
2023-05-22T13:18:43.533Z,4.73
2023-05-22T13:21:10.358Z,5.17
2023-05-22T13:23:37.227Z,5.33
2023-05-22T13:26:04.033Z,4.33
2023-05-22T13:28:31.067Z,4.90
2023-05-22T13:30:57.884Z,5.60
2023-05-22T13:33:25.763Z,5.83
2023-05-22T13:35:52.655Z,5.37
2023-05-22T13:38:19.562Z,6.03
2023-05-22T13:40:48.212Z,5.10
2023-05-22T13:43:15.400Z,5.07
2023-05-22T13:45:42.362Z,6.13
2023-05-22T13:48:09.345Z,6.13
2023-05-22T13:50:36.152Z,5.77
2023-05-22T13:53:02.919Z,6.37
2023-05-22T13:55:29.797Z,6.07
2023-05-22T13:57:56.539Z,5.57
2023-05-22T14:00:23.318Z,6.10
2023-05-22T14:02:50.307Z,6.23
2023-05-22T14:05:17.213Z,6.67
2023-05-22T14:07:44.036Z,8.10
2023-05-22T14:10:11.123Z,9.20
2023-05-22T14:12:37.936Z,8.80
2023-05-22T14:15:08.357Z,8.87
2023-05-22T14:17:35.119Z,7.90
2023-05-22T14:20:02.021Z,8.10
2023-05-22T14:22:29.131Z,7.23
2023-05-22T14:24:55.946Z,7.40
2023-05-22T14:27:22.872Z,7.33
2023-05-22T14:29:49.683Z,7.40
2023-05-22T14:32:16.437Z,7.03
2023-05-22T14:34:46.029Z,7.27
2023-05-22T14:37:13.010Z,7.90
2023-05-22T14:39:39.816Z,8.40
2023-05-22T14:42:06.945Z,10.57
2023-05-22T14:44:33.744Z,9.33
2023-05-22T14:47:00.608Z,9.90
2023-05-22T14:49:27.439Z,10.97
2023-05-22T14:51:54.656Z,11.63
2023-05-22T14:54:23.643Z,11.10
2023-05-22T14:56:50.624Z,9.57
2023-05-22T14:59:17.433Z,8.90
2023-05-22T15:01:44.506Z,10.03
2023-05-22T15:04:11.371Z,10.70
2023-05-22T15:06:38.306Z,9.37
2023-05-22T15:09:05.100Z,10.50
2023-05-22T15:11:31.922Z,11.27
2023-05-22T15:13:58.795Z,13.00
2023-05-22T15:16:26.131Z,11.00
2023-05-22T15:18:53.096Z,11.07
2023-05-22T15:21:20.157Z,10.10
2023-05-22T15:23:47.316Z,10.90
2023-05-22T15:26:19.326Z,10.60
2023-05-22T15:28:46.130Z,9.33
2023-05-22T15:31:17.136Z,9.73
2023-05-22T15:33:46.604Z,10.23
2023-05-22T15:36:13.447Z,10.10
2023-05-22T15:38:40.325Z,10.50
2023-05-22T15:41:07.119Z,10.00
2023-05-22T15:43:34.100Z,9.60
2023-05-22T15:46:01.454Z,9.67
2023-05-22T15:48:28.848Z,10.00
2023-05-22T15:50:55.602Z,9.60
2023-05-22T15:53:22.846Z,9.87
2023-05-22T15:55:50.267Z,9.70
2023-05-22T15:58:17.385Z,10.10
2023-05-22T16:00:44.385Z,9.23
2023-05-22T16:03:11.815Z,9.70
2023-05-22T16:05:39.843Z,9.93
2023-05-22T16:08:09.655Z,10.37
2023-05-22T16:10:36.852Z,10.33
2023-05-22T16:13:06.988Z,9.87
2023-05-22T16:15:34.352Z,10.60
2023-05-22T16:18:01.225Z,11.07
2023-05-22T16:20:28.220Z,10.30
2023-05-22T16:22:55.281Z,10.27
2023-05-22T16:25:22.161Z,10.30
2023-05-22T16:27:48.962Z,11.77
2023-05-22T16:30:17.375Z,12.23
2023-05-22T16:32:48.093Z,11.87
2023-05-22T16:35:15.842Z,11.47
2023-05-22T16:37:42.800Z,11.67
2023-05-22T16:40:09.786Z,11.80
2023-05-22T16:42:38.247Z,11.47
2023-05-22T16:45:06.161Z,11.83
2023-05-22T16:47:33.085Z,10.20
2023-05-22T16:50:00.448Z,12.33
2023-05-22T16:52:27.371Z,9.87
2023-05-22T16:54:54.276Z,10.17
2023-05-22T16:57:21.127Z,10.50
2023-05-22T16:59:48.198Z,10.70
2023-05-22T17:02:15.288Z,9.53
2023-05-22T17:04:42.006Z,10.23
2023-05-22T17:07:08.906Z,10.50
2023-05-22T17:09:36.855Z,10.60
2023-05-22T17:12:03.764Z,9.70
2023-05-22T17:14:31.375Z,10.23
2023-05-22T17:16:58.135Z,11.07
2023-05-22T17:19:24.959Z,10.30
2023-05-22T17:21:52.147Z,11.10
2023-05-22T17:24:18.905Z,9.87
2023-05-22T17:26:46.087Z,10.73
2023-05-22T17:29:12.915Z,10.43
2023-05-22T17:31:39.887Z,10.70
2023-05-22T17:34:06.862Z,10.27
2023-05-22T17:36:33.928Z,10.43
2023-05-22T17:39:00.990Z,9.80
2023-05-22T17:41:27.857Z,9.53
2023-05-22T17:43:57.050Z,10.43
2023-05-22T17:46:23.960Z,10.33
2023-05-22T17:48:51.154Z,9.73
2023-05-22T17:51:17.984Z,9.33
2023-05-22T17:53:44.797Z,8.90
2023-05-22T17:56:11.605Z,8.70
2023-05-22T17:58:38.419Z,8.27
2023-05-22T18:01:05.298Z,9.60
2023-05-22T18:03:32.347Z,7.80
2023-05-22T18:05:59.327Z,9.30
2023-05-22T18:08:26.096Z,8.60
2023-05-22T18:10:55.665Z,9.50
2023-05-22T18:13:22.526Z,10.60
2023-05-22T18:15:51.279Z,9.13
2023-05-22T18:18:18.107Z,10.70
2023-05-22T18:20:46.146Z,11.17
2023-05-22T18:23:13.013Z,10.23
2023-05-22T18:25:39.918Z,10.00
2023-05-22T18:28:08.184Z,10.77
2023-05-22T18:30:35.053Z,10.70
2023-05-22T18:33:01.986Z,10.60
2023-05-22T18:35:28.861Z,9.90
2023-05-22T18:37:55.702Z,9.70
2023-05-22T18:40:22.495Z,9.33
2023-05-22T18:42:49.268Z,8.77
2023-05-22T18:45:16.120Z,9.53
2023-05-22T18:47:43.056Z,8.90
2023-05-22T18:50:10.489Z,9.63
2023-05-22T18:52:37.919Z,10.13
2023-05-22T18:55:05.791Z,9.00
2023-05-22T18:57:32.669Z,9.37
2023-05-22T19:00:00.040Z,9.03
2023-05-22T19:02:26.889Z,9.63
2023-05-22T19:04:53.741Z,9.43
2023-05-22T19:07:21.185Z,8.80
2023-05-22T19:09:49.582Z,10.30
2023-05-22T19:12:16.506Z,10.20
2023-05-22T19:14:43.396Z,9.67
2023-05-22T19:17:10.479Z,10.23
2023-05-22T19:19:37.509Z,9.80
2023-05-22T19:22:05.838Z,10.20
2023-05-22T19:24:32.611Z,10.23
2023-05-22T19:26:59.419Z,9.83
2023-05-22T19:29:26.211Z,10.10
2023-05-22T19:31:52.987Z,10.27
2023-05-22T19:34:19.814Z,10.80
2023-05-22T19:36:46.670Z,9.70
2023-05-22T19:39:13.459Z,11.53
2023-05-22T19:41:40.619Z,11.83
2023-05-22T19:44:07.378Z,10.40
2023-05-22T19:46:34.419Z,10.60
2023-05-22T19:49:01.449Z,11.40
2023-05-22T19:51:28.218Z,10.40
2023-05-22T19:53:55.084Z,10.43
2023-05-22T19:56:21.871Z,11.87
2023-05-22T19:58:48.663Z,10.27
2023-05-22T20:01:17.179Z,10.00
2023-05-22T20:03:44.464Z,10.50
2023-05-22T20:06:12.414Z,10.77
2023-05-22T20:08:41.322Z,11.33
2023-05-22T20:11:08.395Z,10.03
2023-05-22T20:13:35.374Z,9.90
2023-05-22T20:16:11.784Z,10.40
2023-05-22T20:18:41.038Z,9.87
2023-05-22T20:21:08.399Z,10.33
2023-05-22T20:23:35.170Z,10.37
2023-05-22T20:26:01.995Z,11.00
2023-05-22T20:28:29.002Z,10.50
2023-05-22T20:30:55.901Z,10.37
2023-05-22T20:33:23.230Z,11.30
2023-05-22T20:35:52.857Z,10.70
2023-05-22T20:38:20.132Z,10.67
2023-05-22T20:40:47.529Z,10.10
2023-05-22T20:43:14.756Z,9.50
2023-05-22T20:45:45.786Z,10.23
2023-05-22T20:48:13.747Z,10.37
2023-05-22T20:50:42.230Z,10.90
2023-05-22T20:53:09.203Z,10.23
2023-05-22T20:55:36.204Z,10.80
2023-05-22T20:58:03.033Z,9.93
2023-05-22T21:00:29.964Z,10.37
2023-05-22T21:02:58.404Z,10.53
2023-05-22T21:05:26.216Z,9.50
2023-05-22T21:07:53.158Z,10.47
2023-05-22T21:10:19.989Z,9.60
2023-05-22T21:12:46.741Z,9.87
2023-05-22T21:15:13.659Z,10.10
2023-05-22T21:17:40.506Z,11.30
2023-05-22T21:20:08.156Z,9.93
2023-05-22T21:22:34.991Z,11.10
2023-05-22T21:25:01.829Z,10.70
2023-05-22T21:27:28.680Z,11.57
2023-05-22T21:29:55.480Z,10.30
2023-05-22T21:32:22.310Z,11.23
2023-05-22T21:34:49.225Z,10.73
2023-05-22T21:37:16.080Z,11.33
2023-05-22T21:39:42.837Z,10.97
2023-05-22T21:42:09.995Z,9.73
2023-05-22T21:44:37.451Z,11.03
2023-05-22T21:47:04.351Z,10.20
2023-05-22T21:49:31.244Z,11.20
2023-05-22T21:51:57.978Z,10.70
2023-05-22T21:54:24.718Z,11.00
2023-05-22T21:56:51.486Z,9.70
2023-05-22T21:59:18.240Z,11.07
2023-05-22T22:01:45.056Z,10.60
2023-05-22T22:04:12.060Z,11.50
2023-05-22T22:06:38.897Z,10.50
2023-05-22T22:09:05.760Z,10.40
2023-05-22T22:11:32.997Z,10.60
2023-05-22T22:13:59.778Z,10.50
2023-05-22T22:16:27.828Z,11.23
2023-05-22T22:18:54.837Z,10.57
2023-05-22T22:21:21.732Z,10.50
2023-05-22T22:23:48.572Z,11.50
2023-05-22T22:26:16.203Z,11.43
2023-05-22T22:28:42.999Z,10.20
2023-05-22T22:31:09.831Z,10.73
2023-05-22T22:33:36.780Z,10.17
2023-05-22T22:36:03.693Z,10.73
2023-05-22T22:38:32.895Z,10.00
2023-05-22T22:41:00.371Z,9.77
2023-05-22T22:43:27.304Z,10.50
2023-05-22T22:45:55.773Z,10.50
2023-05-22T22:48:22.842Z,9.83
2023-05-22T22:50:50.126Z,12.00
2023-05-22T22:53:19.783Z,10.80
2023-05-22T22:55:55.808Z,10.53
2023-05-22T22:58:25.957Z,11.17
2023-05-22T23:00:53.000Z,11.00
2023-05-22T23:03:19.921Z,11.20
2023-05-22T23:05:46.798Z,12.50
2023-05-22T23:08:13.675Z,11.50
2023-05-22T23:10:40.400Z,11.50
2023-05-22T23:13:07.266Z,10.77
2023-05-22T23:15:34.427Z,11.60
2023-05-22T23:18:01.240Z,11.80
2023-05-22T23:20:28.037Z,11.60
2023-05-22T23:22:54.872Z,11.90
2023-05-22T23:25:21.756Z,12.30
2023-05-22T23:27:48.578Z,12.80
2023-05-22T23:30:15.627Z,11.97
2023-05-22T23:32:42.524Z,12.40
2023-05-22T23:35:10.908Z,12.27
2023-05-22T23:37:37.940Z,13.33
2023-05-22T23:40:06.695Z,12.63
2023-05-22T23:42:35.280Z,12.23
2023-05-22T23:45:05.599Z,12.50
2023-05-22T23:47:32.343Z,13.67
2023-05-22T23:49:59.996Z,12.60
2023-05-22T23:52:27.161Z,12.80
2023-05-22T23:54:53.922Z,12.57
2023-05-22T23:57:20.824Z,12.30
2023-05-22T23:59:47.628Z,13.10
